createdAt,value
2018-03-22T00:00:41.674Z,4.60
2018-03-22T00:03:09.753Z,4.50
2018-03-22T00:05:37.406Z,4.50
2018-03-22T00:08:04.646Z,4.50
2018-03-22T00:10:32.046Z,4.50
2018-03-22T00:12:59.866Z,4.40
2018-03-22T00:15:27.116Z,4.40
2018-03-22T00:17:54.486Z,4.40
2018-03-22T00:20:21.646Z,4.40
2018-03-22T00:22:48.794Z,4.40
2018-03-22T00:25:15.926Z,4.40
2018-03-22T00:27:44.166Z,4.30
2018-03-22T00:30:11.926Z,4.30
2018-03-22T00:32:39.226Z,4.30
2018-03-22T00:35:06.381Z,4.30
2018-03-22T00:37:34.745Z,4.30
2018-03-22T00:40:03.460Z,4.30
2018-03-22T00:42:31.310Z,4.30
2018-03-22T00:44:59.367Z,4.30
2018-03-22T00:47:26.526Z,4.30
2018-03-22T00:49:53.672Z,4.30
2018-03-22T00:52:20.835Z,4.30
2018-03-22T00:54:47.965Z,4.30
2018-03-22T00:57:15.126Z,4.30
2018-03-22T00:59:42.265Z,4.30
2018-03-22T01:02:09.405Z,4.30
2018-03-22T01:04:36.566Z,4.30
2018-03-22T01:07:04.632Z,4.20
2018-03-22T01:09:31.785Z,4.20
2018-03-22T01:11:59.846Z,4.20
2018-03-22T01:14:27.005Z,4.20
2018-03-22T01:16:54.152Z,4.20
2018-03-22T01:19:22.233Z,4.10
2018-03-22T01:21:49.366Z,4.10
2018-03-22T01:24:16.525Z,4.10
2018-03-22T01:26:43.672Z,4.00
2018-03-22T01:29:10.826Z,4.00
2018-03-22T01:31:37.965Z,4.00
2018-03-22T01:34:05.433Z,4.00
2018-03-22T01:36:32.565Z,4.00
2018-03-22T01:39:00.646Z,4.00
2018-03-22T01:41:28.105Z,3.90
2018-03-22T01:43:55.272Z,3.90
2018-03-22T01:46:22.407Z,3.90
2018-03-22T01:48:50.165Z,3.90
2018-03-22T01:51:17.305Z,3.90
2018-03-22T01:53:49.065Z,3.80
2018-03-22T01:56:16.526Z,3.80
2018-03-22T01:58:43.686Z,3.80
2018-03-22T02:01:11.752Z,3.80
2018-03-22T02:03:40.426Z,3.80
2018-03-22T02:06:08.206Z,3.80
2018-03-22T02:08:35.650Z,3.80
2018-03-22T02:11:02.809Z,3.80
2018-03-22T02:13:29.966Z,3.80
2018-03-22T02:15:58.025Z,3.80
2018-03-22T02:18:25.512Z,3.80
2018-03-22T02:20:52.955Z,3.80
2018-03-22T02:23:20.713Z,3.80
2018-03-22T02:25:47.865Z,3.80
2018-03-22T02:28:15.926Z,3.80
2018-03-22T02:30:44.016Z,3.80
2018-03-22T02:33:12.686Z,3.80
2018-03-22T02:35:39.832Z,3.80
2018-03-22T02:38:06.986Z,3.80
2018-03-22T02:40:35.973Z,3.70
2018-03-22T02:43:04.346Z,3.70
2018-03-22T02:45:31.514Z,3.70
2018-03-22T02:47:58.647Z,3.70
2018-03-22T02:50:25.805Z,3.70
2018-03-22T02:52:53.869Z,3.60
2018-03-22T02:55:21.032Z,3.60
2018-03-22T02:57:48.167Z,3.60
2018-03-22T03:00:15.626Z,3.60
2018-03-22T03:02:42.766Z,3.60
2018-03-22T03:05:09.926Z,3.50
2018-03-22T03:07:37.992Z,3.50
2018-03-22T03:10:05.445Z,3.50
2018-03-22T03:12:32.605Z,3.50
2018-03-22T03:14:59.752Z,3.40
2018-03-22T03:17:26.906Z,3.40
2018-03-22T03:19:54.647Z,3.40
2018-03-22T03:22:21.805Z,3.30
2018-03-22T03:24:48.965Z,3.40
2018-03-22T03:27:16.105Z,3.30
2018-03-22T03:29:43.565Z,3.30
2018-03-22T03:32:10.725Z,3.30
2018-03-22T03:34:38.484Z,3.30
2018-03-22T03:37:05.625Z,3.30
2018-03-22T03:39:32.792Z,3.30
2018-03-22T03:42:00.232Z,3.30
2018-03-22T03:44:27.389Z,3.30
2018-03-22T03:46:55.445Z,3.30
2018-03-22T03:49:22.606Z,3.20
2018-03-22T03:51:50.665Z,3.20
2018-03-22T03:54:17.833Z,3.20
2018-03-22T03:56:45.592Z,3.20
2018-03-22T03:59:12.745Z,3.20
2018-03-22T04:01:39.885Z,3.20
2018-03-22T04:04:07.045Z,3.10
2018-03-22T04:06:34.185Z,3.10
2018-03-22T04:09:01.352Z,3.10
2018-03-22T04:11:29.405Z,3.10
2018-03-22T04:13:56.872Z,3.10
2018-03-22T04:16:25.273Z,3.00
2018-03-22T04:18:52.408Z,3.00
2018-03-22T04:21:20.478Z,2.90
2018-03-22T04:23:47.624Z,2.90
2018-03-22T04:26:15.065Z,2.90
2018-03-22T04:28:42.232Z,2.90
2018-03-22T04:31:09.689Z,2.90
2018-03-22T04:33:36.825Z,2.80
2018-03-22T04:36:03.992Z,2.80
2018-03-22T04:38:31.125Z,2.80
2018-03-22T04:40:58.285Z,2.80
2018-03-22T04:43:26.345Z,2.80
2018-03-22T04:45:53.511Z,2.80
2018-03-22T04:48:20.645Z,2.80
2018-03-22T04:50:47.785Z,2.80
2018-03-22T04:53:14.953Z,2.80
2018-03-22T04:55:42.085Z,2.70
2018-03-22T04:58:09.246Z,2.70
2018-03-22T05:00:36.374Z,2.70
2018-03-22T05:03:03.545Z,2.70
2018-03-22T05:05:31.112Z,2.70
2018-03-22T05:07:58.445Z,2.70
2018-03-22T05:10:25.606Z,2.60
2018-03-22T05:12:54.284Z,2.60
2018-03-22T05:15:21.445Z,2.60
2018-03-22T05:17:48.585Z,2.60
2018-03-22T05:20:15.753Z,2.60
2018-03-22T05:22:42.885Z,2.60
2018-03-22T05:25:10.025Z,2.60
2018-03-22T05:27:37.192Z,2.60
2018-03-22T05:30:05.246Z,2.60
2018-03-22T05:32:32.312Z,2.60
2018-03-22T05:34:59.544Z,2.60
2018-03-22T05:37:26.905Z,2.70
2018-03-22T05:39:54.186Z,2.70
2018-03-22T05:42:21.305Z,2.70
2018-03-22T05:44:48.472Z,2.70
2018-03-22T05:47:15.605Z,2.80
2018-03-22T05:49:43.065Z,2.80
2018-03-22T05:52:10.205Z,2.80
2018-03-22T05:54:37.600Z,2.90
2018-03-22T05:57:05.432Z,2.90
2018-03-22T05:59:32.585Z,2.90
2018-03-22T06:02:00.045Z,3.00
2018-03-22T06:04:27.805Z,3.10
2018-03-22T06:06:55.565Z,3.20
2018-03-22T06:09:22.712Z,3.10
2018-03-22T06:11:49.866Z,3.20
2018-03-22T06:14:17.325Z,3.30
2018-03-22T06:16:44.791Z,3.40
2018-03-22T06:19:11.932Z,3.40
2018-03-22T06:21:39.405Z,3.50
2018-03-22T06:24:06.844Z,3.50
2018-03-22T06:26:34.925Z,3.70
2018-03-22T06:29:02.393Z,3.70
2018-03-22T06:31:29.524Z,3.80
2018-03-22T06:33:56.984Z,3.90
2018-03-22T06:36:25.045Z,4.00
2018-03-22T06:38:52.204Z,4.00
2018-03-22T06:41:20.264Z,4.20
2018-03-22T06:43:47.432Z,4.20
2018-03-22T06:46:14.885Z,4.30
2018-03-22T06:48:42.025Z,4.40
2018-03-22T06:51:09.193Z,4.40
2018-03-22T06:53:36.328Z,4.50
2018-03-22T06:56:03.465Z,4.60
2018-03-22T06:58:30.637Z,4.70
2018-03-22T07:00:57.765Z,4.80
2018-03-22T07:03:25.227Z,4.80
2018-03-22T07:05:52.392Z,4.90
2018-03-22T07:08:20.152Z,5.00
2018-03-22T07:10:47.285Z,4.90
2018-03-22T07:13:21.512Z,5.00
2018-03-22T07:15:58.105Z,5.10
2018-03-22T07:18:25.864Z,5.20
2018-03-22T07:20:53.006Z,5.10
2018-03-22T07:23:20.165Z,5.20
2018-03-22T07:25:47.305Z,5.30
2018-03-22T07:28:14.472Z,5.30
2018-03-22T07:30:41.605Z,5.30
2018-03-22T07:33:09.685Z,5.40
2018-03-22T07:35:37.125Z,5.40
2018-03-22T07:38:04.471Z,5.50
2018-03-22T07:40:31.752Z,5.50
2018-03-22T07:43:05.945Z,5.60
2018-03-22T07:45:33.404Z,5.60
2018-03-22T07:48:00.872Z,5.70
2018-03-22T07:50:28.005Z,5.80
2018-03-22T07:52:55.165Z,5.80
2018-03-22T07:55:22.312Z,5.90
2018-03-22T07:57:50.392Z,6.00
2018-03-22T08:00:17.525Z,6.10
2018-03-22T08:02:44.985Z,6.20
2018-03-22T08:05:12.160Z,6.30
2018-03-22T08:07:39.610Z,6.40
2018-03-22T08:10:06.765Z,6.50
2018-03-22T08:12:34.825Z,6.70
2018-03-22T08:15:02.888Z,6.70
2018-03-22T08:17:30.044Z,6.70
2018-03-22T08:19:57.191Z,6.80
2018-03-22T08:22:24.346Z,6.90
2018-03-22T08:24:51.486Z,7.00
2018-03-22T08:27:19.565Z,7.20
2018-03-22T08:29:47.032Z,7.10
2018-03-22T08:32:14.165Z,7.30
2018-03-22T08:34:41.925Z,7.40
2018-03-22T08:37:09.085Z,7.40
2018-03-22T08:39:36.232Z,7.50
2018-03-22T08:42:04.317Z,7.70
2018-03-22T08:44:31.445Z,7.70
2018-03-22T08:46:59.204Z,7.80
2018-03-22T08:49:26.365Z,7.80
2018-03-22T08:51:53.832Z,7.90
2018-03-22T08:54:21.885Z,8.10
2018-03-22T08:56:49.354Z,8.10
2018-03-22T08:59:17.405Z,8.20
2018-03-22T09:01:44.571Z,8.20
2018-03-22T09:04:11.705Z,8.30
2018-03-22T09:06:38.872Z,8.30
2018-03-22T09:09:06.005Z,8.40
2018-03-22T09:11:33.165Z,8.40
2018-03-22T09:14:00.324Z,8.40
2018-03-22T09:16:28.685Z,8.40
2018-03-22T09:18:56.154Z,8.50
2018-03-22T09:21:23.912Z,8.50
2018-03-22T09:23:51.992Z,8.50
2018-03-22T09:26:20.072Z,8.50
2018-03-22T09:28:47.205Z,8.50
2018-03-22T09:31:14.345Z,8.50
2018-03-22T09:33:41.725Z,8.60
2018-03-22T09:36:08.966Z,8.60
2018-03-22T09:38:36.148Z,8.70
2018-03-22T09:41:03.272Z,8.70
2018-03-22T09:43:31.326Z,8.80
2018-03-22T09:45:59.406Z,8.90
2018-03-22T09:48:26.553Z,8.90
2018-03-22T09:50:54.632Z,9.00
2018-03-22T09:53:22.247Z,8.90
2018-03-22T09:55:49.645Z,9.00
2018-03-22T09:58:16.872Z,9.00
2018-03-22T10:00:44.926Z,9.20
2018-03-22T10:03:12.392Z,9.20
2018-03-22T10:05:39.525Z,9.20
2018-03-22T10:08:07.605Z,9.30
2018-03-22T10:10:35.992Z,9.40
2018-03-22T10:13:04.075Z,9.50
2018-03-22T10:15:31.206Z,9.40
2018-03-22T10:17:58.672Z,9.50
2018-03-22T10:20:26.749Z,9.60
2018-03-22T10:22:54.505Z,9.60
2018-03-22T10:25:21.947Z,9.60
2018-03-22T10:27:49.112Z,9.70
2018-03-22T10:30:17.192Z,9.80
2018-03-22T10:32:44.632Z,9.80
2018-03-22T10:35:11.785Z,9.80
2018-03-22T10:37:38.939Z,9.80
2018-03-22T10:40:06.328Z,9.80
2018-03-22T10:42:34.153Z,9.90
2018-03-22T10:45:01.308Z,9.80
2018-03-22T10:47:28.445Z,9.90
2018-03-22T10:49:56.526Z,9.90
2018-03-22T10:52:24.586Z,9.90
2018-03-22T10:54:51.752Z,9.90
2018-03-22T10:57:19.807Z,10.00
2018-03-22T10:59:46.965Z,9.90
2018-03-22T11:02:20.268Z,10.00
2018-03-22T11:04:47.404Z,10.10
2018-03-22T11:07:14.872Z,10.10
2018-03-22T11:09:42.008Z,10.20
2018-03-22T11:12:09.165Z,10.20
2018-03-22T11:14:36.312Z,10.30
2018-03-22T11:17:04.392Z,10.40
2018-03-22T11:19:31.526Z,10.40
2018-03-22T11:21:58.712Z,10.40
2018-03-22T11:24:26.045Z,10.50
2018-03-22T11:26:53.285Z,10.50
2018-03-22T11:29:20.425Z,10.50
2018-03-22T11:31:47.592Z,10.50
2018-03-22T11:34:14.725Z,10.60
2018-03-22T11:36:41.886Z,10.70
2018-03-22T11:39:09.038Z,10.70
2018-03-22T11:41:36.184Z,10.80
2018-03-22T11:44:03.545Z,10.90
2018-03-22T11:46:31.089Z,11.00
2018-03-22T11:48:58.245Z,11.10
2018-03-22T11:51:25.705Z,11.20
2018-03-22T11:53:53.800Z,11.30
2018-03-22T11:56:22.153Z,11.40
2018-03-22T11:58:49.926Z,11.40
2018-03-22T12:01:17.065Z,11.50
2018-03-22T12:03:45.146Z,11.50
2018-03-22T12:06:12.285Z,11.50
2018-03-22T12:08:39.432Z,11.50
2018-03-22T12:11:06.590Z,11.60
2018-03-22T12:13:33.727Z,11.60
2018-03-22T12:16:01.192Z,11.60
2018-03-22T12:18:29.272Z,11.60
2018-03-22T12:20:56.712Z,11.60
2018-03-22T12:23:23.865Z,11.60
2018-03-22T12:25:51.005Z,11.50
2018-03-22T12:28:18.165Z,11.50
2018-03-22T12:30:45.626Z,11.50
2018-03-22T12:33:13.086Z,11.60
2018-03-22T12:35:40.558Z,11.60
2018-03-22T12:38:07.991Z,11.70
2018-03-22T12:40:35.145Z,11.80
2018-03-22T12:43:02.605Z,11.90
2018-03-22T12:45:29.752Z,11.90
2018-03-22T12:47:57.832Z,12.00
2018-03-22T12:50:24.965Z,12.00
2018-03-22T12:52:52.125Z,12.00
2018-03-22T12:55:19.272Z,12.00
2018-03-22T12:57:46.405Z,12.00
2018-03-22T13:00:13.565Z,12.10
2018-03-22T13:02:41.325Z,12.10
2018-03-22T13:05:08.486Z,12.10
2018-03-22T13:07:36.166Z,12.20
2018-03-22T13:10:04.312Z,12.20
2018-03-22T13:12:31.465Z,12.20
2018-03-22T13:14:59.526Z,12.30
2018-03-22T13:17:26.885Z,12.30
2018-03-22T13:19:54.129Z,12.30
2018-03-22T13:22:21.918Z,12.30
2018-03-22T13:24:49.364Z,12.40
2018-03-22T13:27:17.432Z,12.40
2018-03-22T13:29:44.585Z,12.40
2018-03-22T13:32:11.725Z,12.40
2018-03-22T13:34:38.885Z,12.50
2018-03-22T13:37:06.025Z,12.50
2018-03-22T13:39:33.192Z,12.50
2018-03-22T13:42:00.324Z,12.50
2018-03-22T13:44:27.532Z,12.50
2018-03-22T13:46:54.632Z,12.50
2018-03-22T13:49:21.791Z,12.60
2018-03-22T13:51:50.152Z,12.60
2018-03-22T13:54:17.305Z,12.60
2018-03-22T13:56:45.365Z,12.70
2018-03-22T13:59:12.525Z,12.70
2018-03-22T14:01:40.587Z,12.80
2018-03-22T14:04:07.945Z,12.80
2018-03-22T14:06:35.405Z,12.80
2018-03-22T14:09:02.665Z,12.80
2018-03-22T14:11:31.352Z,12.80
2018-03-22T14:13:59.725Z,12.70
2018-03-22T14:16:27.785Z,12.70
2018-03-22T14:18:54.952Z,12.70
2018-03-22T14:21:22.085Z,12.70
2018-03-22T14:23:49.245Z,12.70
2018-03-22T14:26:17.004Z,12.70
2018-03-22T14:28:45.085Z,12.70
2018-03-22T14:31:12.232Z,12.70
2018-03-22T14:33:39.365Z,12.80
2018-03-22T14:36:06.525Z,12.80
2018-03-22T14:38:33.676Z,12.80
2018-03-22T14:41:01.746Z,12.80
2018-03-22T14:43:29.805Z,12.80
2018-03-22T14:45:56.965Z,12.80
2018-03-22T14:48:25.352Z,12.70
2018-03-22T14:50:52.485Z,12.70
2018-03-22T14:53:19.637Z,12.70
2018-03-22T14:55:47.610Z,12.60
2018-03-22T14:58:14.724Z,12.50
2018-03-22T15:00:41.865Z,12.10
2018-03-22T15:03:10.586Z,12.40
2018-03-22T15:05:37.752Z,12.50
2018-03-22T15:08:04.745Z,12.50
2018-03-22T15:10:31.902Z,12.50
2018-03-22T15:12:59.119Z,12.50
2018-03-22T15:15:26.965Z,12.40
2018-03-22T15:17:54.104Z,12.40
2018-03-22T15:20:21.145Z,12.40
2018-03-22T15:22:48.325Z,12.40
2018-03-22T15:25:15.992Z,12.40
2018-03-22T15:27:43.731Z,12.40
2018-03-22T15:30:10.729Z,12.40
2018-03-22T15:32:37.725Z,12.30
2018-03-22T15:35:05.352Z,12.10
2018-03-22T15:37:32.365Z,12.10
2018-03-22T15:39:59.409Z,12.00
2018-03-22T15:42:27.405Z,11.90
2018-03-22T15:44:54.396Z,11.90
2018-03-22T15:47:21.386Z,11.80
2018-03-22T15:49:48.685Z,11.70
2018-03-22T15:52:15.836Z,11.70
2018-03-22T15:54:42.859Z,11.60
2018-03-22T15:57:10.445Z,11.50
2018-03-22T15:59:38.057Z,11.50
2018-03-22T16:02:05.841Z,11.50
2018-03-22T16:04:33.125Z,11.40
2018-03-22T16:07:00.265Z,11.40
2018-03-22T16:09:27.117Z,11.40
2018-03-22T16:11:54.265Z,11.40
2018-03-22T16:14:21.406Z,11.30
2018-03-22T16:16:48.552Z,11.30
2018-03-22T16:19:15.579Z,11.20
2018-03-22T16:21:42.524Z,11.20
2018-03-22T16:24:09.685Z,11.20
2018-03-22T16:26:37.145Z,11.10
2018-03-22T16:29:04.605Z,11.10
2018-03-22T16:31:31.752Z,11.10
2018-03-22T16:33:58.744Z,11.00
2018-03-22T16:36:26.047Z,11.00
2018-03-22T16:38:53.513Z,11.00
2018-03-22T16:41:20.987Z,10.90
2018-03-22T16:43:47.962Z,10.90
2018-03-22T16:46:14.960Z,10.90
2018-03-22T16:48:42.126Z,10.90
2018-03-22T16:51:09.272Z,10.80
2018-03-22T16:53:36.725Z,10.80
2018-03-22T16:56:04.791Z,10.70
2018-03-22T16:58:31.944Z,10.70
2018-03-22T17:01:00.005Z,10.60
2018-03-22T17:03:27.165Z,10.60
2018-03-22T17:05:55.245Z,10.60
2018-03-22T17:08:22.245Z,10.60
2018-03-22T17:10:49.272Z,10.60
2018-03-22T17:13:16.327Z,10.50
2018-03-22T17:15:43.385Z,10.50
2018-03-22T17:18:10.425Z,10.50
2018-03-22T17:20:37.593Z,10.50
2018-03-22T17:23:04.966Z,10.50
2018-03-22T17:25:32.072Z,10.40
2018-03-22T17:27:59.165Z,10.40
2018-03-22T17:30:26.189Z,10.40
2018-03-22T17:32:53.245Z,10.30
2018-03-22T17:35:20.265Z,10.30
2018-03-22T17:37:47.352Z,10.30
2018-03-22T17:40:14.445Z,10.30
2018-03-22T17:42:41.465Z,10.30
2018-03-22T17:45:08.525Z,10.20
2018-03-22T17:47:36.325Z,10.20
2018-03-22T17:50:03.465Z,10.20
2018-03-22T17:52:30.505Z,10.20
2018-03-22T17:54:57.626Z,10.20
2018-03-22T17:57:25.445Z,10.20
2018-03-22T17:59:52.472Z,10.20
2018-03-22T18:02:19.992Z,10.10
2018-03-22T18:04:47.432Z,10.10
2018-03-22T18:07:14.564Z,10.10
2018-03-22T18:09:41.725Z,10.10
2018-03-22T18:12:08.886Z,10.10
2018-03-22T18:14:36.026Z,10.00
2018-03-22T18:17:03.165Z,10.00
2018-03-22T18:19:30.632Z,10.00
2018-03-22T18:21:58.085Z,10.00
2018-03-22T18:24:26.168Z,10.00
2018-03-22T18:26:54.233Z,10.00
2018-03-22T18:29:22.313Z,10.00
2018-03-22T18:31:50.365Z,9.90
2018-03-22T18:34:17.790Z,10.00
2018-03-22T18:36:44.985Z,9.90
2018-03-22T18:39:12.125Z,10.30
2018-03-22T18:41:39.285Z,9.90
2018-03-22T18:44:06.686Z,9.90
2018-03-22T18:46:33.885Z,9.90
2018-03-22T18:49:01.966Z,9.80
2018-03-22T18:51:29.151Z,9.80
2018-03-22T18:53:56.205Z,9.80
2018-03-22T18:56:23.304Z,9.80
2018-03-22T18:58:50.405Z,9.80
2018-03-22T19:01:17.465Z,9.70
2018-03-22T19:03:44.531Z,9.70
2018-03-22T19:06:11.525Z,9.70
2018-03-22T19:08:39.366Z,9.70
2018-03-22T19:11:06.345Z,9.70
2018-03-22T19:13:33.286Z,9.60
2018-03-22T19:16:00.285Z,9.60
2018-03-22T19:18:27.445Z,9.60
2018-03-22T19:20:56.745Z,9.50
2018-03-22T19:23:24.806Z,9.50
2018-03-22T19:25:51.966Z,9.50
2018-03-22T19:28:20.025Z,9.40
2018-03-22T19:30:47.592Z,9.40
2018-03-22T19:33:14.952Z,9.30
2018-03-22T19:35:42.086Z,9.30
2018-03-22T19:38:09.244Z,9.20
2018-03-22T19:40:36.406Z,9.10
2018-03-22T19:43:03.545Z,9.10
2018-03-22T19:45:30.718Z,9.10
2018-03-22T19:47:57.846Z,9.00
2018-03-22T19:50:25.925Z,8.90
2018-03-22T19:52:53.366Z,8.90
2018-03-22T19:55:20.526Z,8.90
2018-03-22T19:57:47.672Z,8.90
2018-03-22T20:00:15.753Z,8.80
2018-03-22T20:02:43.805Z,8.80
2018-03-22T20:05:10.965Z,8.70
2018-03-22T20:07:39.031Z,8.70
2018-03-22T20:10:06.187Z,8.70
2018-03-22T20:12:35.405Z,8.70
2018-03-22T20:15:03.226Z,8.60
2018-03-22T20:17:30.726Z,8.60
2018-03-22T20:19:58.166Z,8.60
2018-03-22T20:22:25.307Z,8.60
2018-03-22T20:24:53.386Z,8.60
2018-03-22T20:27:20.825Z,8.50
2018-03-22T20:29:47.992Z,8.60
2018-03-22T20:32:15.126Z,8.60
2018-03-22T20:34:42.285Z,8.60
2018-03-22T20:37:09.432Z,8.60
2018-03-22T20:39:36.586Z,8.60
2018-03-22T20:42:04.645Z,8.60
2018-03-22T20:44:31.805Z,8.60
2018-03-22T20:46:59.192Z,8.60
2018-03-22T20:49:26.728Z,8.60
2018-03-22T20:51:54.108Z,8.60
2018-03-22T20:54:21.326Z,8.60
2018-03-22T20:56:48.792Z,8.60
2018-03-22T20:59:15.926Z,8.50
2018-03-22T21:01:43.068Z,8.50
2018-03-22T21:04:10.552Z,8.50
2018-03-22T21:06:38.605Z,8.50
2018-03-22T21:09:05.765Z,8.50
2018-03-22T21:11:33.832Z,8.40
2018-03-22T21:14:01.913Z,8.40
2018-03-22T21:16:29.047Z,8.40
2018-03-22T21:18:56.185Z,8.30
2018-03-22T21:21:23.352Z,8.30
2018-03-22T21:23:50.805Z,8.30
2018-03-22T21:26:18.244Z,8.30
2018-03-22T21:28:45.405Z,8.20
2018-03-22T21:31:12.553Z,8.20
2018-03-22T21:33:39.705Z,8.20
2018-03-22T21:36:07.767Z,8.10
2018-03-22T21:38:35.226Z,8.10
2018-03-22T21:41:09.446Z,8.10
2018-03-22T21:43:36.906Z,8.00
2018-03-22T21:46:04.366Z,8.00
2018-03-22T21:48:32.429Z,7.90
2018-03-22T21:51:00.505Z,7.90
2018-03-22T21:53:27.646Z,7.80
2018-03-22T21:55:54.805Z,7.80
2018-03-22T21:58:22.886Z,7.70
2018-03-22T22:00:50.327Z,7.70
2018-03-22T22:03:17.786Z,7.60
2018-03-22T22:05:45.865Z,7.50
2018-03-22T22:08:13.930Z,7.40
2018-03-22T22:10:41.086Z,7.50
2018-03-22T22:13:08.232Z,7.40
2018-03-22T22:15:36.312Z,7.30
2018-03-22T22:18:03.445Z,7.30
2018-03-22T22:20:30.605Z,7.20
2018-03-22T22:22:58.072Z,7.20
2018-03-22T22:25:25.205Z,7.10
2018-03-22T22:27:52.345Z,7.10
2018-03-22T22:30:19.513Z,7.00
2018-03-22T22:32:47.567Z,7.00
2018-03-22T22:35:14.726Z,6.90
2018-03-22T22:37:41.866Z,7.00
2018-03-22T22:40:09.032Z,6.90
2018-03-22T22:42:36.165Z,6.90
2018-03-22T22:45:03.626Z,6.90
2018-03-22T22:47:30.766Z,6.80
2018-03-22T22:49:58.552Z,6.90
2018-03-22T22:52:26.605Z,6.80
2018-03-22T22:54:53.765Z,6.80
2018-03-22T22:57:21.832Z,6.80
2018-03-22T22:59:49.285Z,6.70
2018-03-22T23:02:16.430Z,6.80
2018-03-22T23:04:50.656Z,6.80
2018-03-22T23:07:18.106Z,6.80
2018-03-22T23:09:45.250Z,6.70
2018-03-22T23:12:12.404Z,6.70
2018-03-22T23:14:39.864Z,6.70
2018-03-22T23:17:07.035Z,6.70
2018-03-22T23:19:34.491Z,6.70
2018-03-22T23:22:01.925Z,6.70
2018-03-22T23:24:29.392Z,6.70
2018-03-22T23:26:57.468Z,6.70
2018-03-22T23:29:24.605Z,6.70
2018-03-22T23:31:51.765Z,6.80
2018-03-22T23:34:19.832Z,6.70
2018-03-22T23:36:47.594Z,6.70
2018-03-22T23:39:15.678Z,6.70
2018-03-22T23:41:42.805Z,6.70
2018-03-22T23:44:10.185Z,6.70
2018-03-22T23:46:37.432Z,6.70
2018-03-22T23:49:05.193Z,6.70
2018-03-22T23:51:32.325Z,6.70
2018-03-22T23:53:59.485Z,6.70
2018-03-22T23:56:26.647Z,6.70
2018-03-22T23:58:53.765Z,6.70
